Time;durP1;ratioP1;P1;durP2;ratioP2;P2;SDS_P1;SDS_P2;PMS_P1;PMS_P2;Temp;Humidity;BMP_temperature;BMP_pressure;BME280_temperature;BME280_humidity;BME280_pressure;Samples;Min_cycle;Max_cycle;Signal;HPM_P1;HPM_P2
2020/12/01 00:01:47;;;;;;;26.73;12.20;;;0.70;99.90;;;;;;5097395;28;20452;-71
2020/12/01 00:04:14;;;;;;;28.27;13.03;;;0.80;99.90;;;;;;5097447;28;20395;-69
2020/12/01 00:06:40;;;;;;;27.23;14.00;;;0.70;99.90;;;;;;5097321;28;20413;-68
2020/12/01 00:09:06;;;;;;;26.00;12.70;;;0.70;99.90;;;;;;5097210;28;20435;-68
2020/12/01 00:11:32;;;;;;;26.33;13.30;;;0.70;99.90;;;;;;5097278;28;20410;-70
2020/12/01 00:13:58;;;;;;;31.17;14.47;;;0.70;99.90;;;;;;5097209;28;20789;-70
2020/12/01 00:16:25;;;;;;;35.00;13.97;;;0.70;99.90;;;;;;5096729;28;20848;-69
2020/12/01 00:18:52;;;;;;;28.87;13.37;;;0.80;99.90;;;;;;5097013;28;20439;-70
2020/12/01 00:21:20;;;;;;;29.40;13.57;;;0.80;99.90;;;;;;5097042;28;20451;-69
2020/12/01 00:23:47;;;;;;;32.37;13.77;;;0.80;99.90;;;;;;5097029;28;20413;-70
2020/12/01 00:26:15;;;;;;;30.73;14.43;;;0.80;99.90;;;;;;5096742;28;20439;-70
2020/12/01 00:28:41;;;;;;;28.13;13.17;;;0.80;99.90;;;;;;5096920;28;20411;-70
2020/12/01 00:31:07;;;;;;;26.17;13.23;;;0.80;99.90;;;;;;5096858;28;20426;-70
2020/12/01 00:33:34;;;;;;;29.37;12.90;;;0.80;99.90;;;;;;5096172;28;20826;-70
2020/12/01 00:36:02;;;;;;;24.90;13.10;;;0.80;99.90;;;;;;5096672;28;20510;-70
2020/12/01 00:38:28;;;;;;;26.50;12.57;;;0.80;99.90;;;;;;5096646;28;20411;-71
2020/12/01 00:40:54;;;;;;;30.60;14.07;;;0.80;99.90;;;;;;5096657;28;20454;-71
2020/12/01 00:43:20;;;;;;;28.00;14.13;;;0.90;99.90;;;;;;5096634;28;20414;-71
2020/12/01 00:45:47;;;;;;;30.60;13.60;;;0.90;99.90;;;;;;5096623;28;20513;-70
2020/12/01 00:48:15;;;;;;;28.33;13.50;;;0.90;99.90;;;;;;5096525;28;20423;-70
2020/12/01 00:50:41;;;;;;;27.77;13.60;;;0.80;99.90;;;;;;5096111;28;21001;-70
2020/12/01 00:53:09;;;;;;;29.70;13.30;;;0.90;99.90;;;;;;5096456;28;20448;-70
2020/12/01 00:55:35;;;;;;;34.57;14.10;;;0.90;99.90;;;;;;5096368;28;20447;-71
2020/12/01 00:58:02;;;;;;;29.70;13.30;;;0.90;99.90;;;;;;5096336;28;20423;-68
2020/12/01 01:00:29;;;;;;;32.13;13.10;;;0.90;99.90;;;;;;5096177;28;20466;-70
2020/12/01 01:02:56;;;;;;;25.13;13.20;;;0.90;99.90;;;;;;5095210;28;20425;-70
2020/12/01 01:05:22;;;;;;;29.63;13.20;;;0.90;99.90;;;;;;5096215;28;20463;-71
2020/12/01 01:07:49;;;;;;;23.33;11.80;;;0.90;99.90;;;;;;5096251;28;20440;-70
2020/12/01 01:10:19;;;;;;;24.70;12.20;;;1.00;99.90;;;;;;5096040;28;20435;-71
2020/12/01 01:12:45;;;;;;;28.87;12.53;;;0.90;99.90;;;;;;5096060;28;20444;-70
2020/12/01 01:15:12;;;;;;;29.10;12.97;;;0.90;99.90;;;;;;5095711;28;20418;-70
2020/12/01 01:17:39;;;;;;;25.93;12.73;;;0.90;99.90;;;;;;5095905;28;20487;-71
2020/12/01 01:20:06;;;;;;;26.13;13.70;;;0.90;99.90;;;;;;5095868;28;20442;-70
2020/12/01 01:22:32;;;;;;;25.30;11.90;;;0.90;99.90;;;;;;5095574;28;20419;-70
2020/12/01 01:24:58;;;;;;;28.37;12.40;;;0.90;99.90;;;;;;5095831;28;20444;-70
2020/12/01 01:27:26;;;;;;;26.20;12.07;;;0.90;99.90;;;;;;5095815;28;20459;-70
2020/12/01 01:29:52;;;;;;;30.90;12.17;;;0.90;99.90;;;;;;5095679;28;20459;-70
2020/12/01 01:32:18;;;;;;;29.70;12.97;;;0.90;99.90;;;;;;5095704;28;20446;-70
2020/12/01 01:34:44;;;;;;;32.87;14.30;;;0.90;99.90;;;;;;5095204;28;20472;-70
2020/12/01 01:37:11;;;;;;;29.10;13.30;;;0.90;99.90;;;;;;5095589;28;20528;-69
2020/12/01 01:39:37;;;;;;;27.33;12.23;;;1.00;99.90;;;;;;5095482;28;20466;-69
2020/12/01 01:42:05;;;;;;;28.60;11.77;;;1.00;99.90;;;;;;5095235;28;20418;-69
2020/12/01 01:44:32;;;;;;;24.60;12.67;;;1.00;99.90;;;;;;5095210;28;20914;-69
2020/12/01 01:47:05;;;;;;;31.20;12.80;;;1.00;99.90;;;;;;5095437;28;20510;-69
2020/12/01 01:49:35;;;;;;;28.70;13.17;;;1.00;99.90;;;;;;5095344;28;20441;-69
2020/12/01 01:52:03;;;;;;;27.80;12.70;;;1.00;99.90;;;;;;5095070;28;20804;-69
2020/12/01 01:54:30;;;;;;;28.40;12.87;;;1.00;99.90;;;;;;5095312;28;20440;-69
2020/12/01 01:57:01;;;;;;;28.10;12.37;;;1.00;99.90;;;;;;5095167;28;20483;-70
2020/12/01 01:59:30;;;;;;;33.90;13.73;;;1.00;99.90;;;;;;5095122;28;20467;-69
2020/12/01 02:01:57;;;;;;;21.97;11.70;;;1.00;99.90;;;;;;5094823;28;20444;-69
2020/12/01 02:04:24;;;;;;;22.37;11.13;;;1.00;99.90;;;;;;5095342;28;20391;-69
2020/12/01 02:06:53;;;;;;;25.40;12.73;;;1.00;99.90;;;;;;5095029;28;20439;-69
2020/12/01 02:09:24;;;;;;;23.00;10.77;;;1.00;99.90;;;;;;5094914;28;20460;-69
2020/12/01 02:11:51;;;;;;;29.00;12.47;;;1.00;99.90;;;;;;5094945;28;20768;-70
2020/12/01 02:14:23;;;;;;;26.63;12.43;;;0.90;99.90;;;;;;5094776;28;20436;-69
2020/12/01 02:16:52;;;;;;;29.83;12.10;;;1.00;99.90;;;;;;5094781;28;20437;-69
2020/12/01 02:19:22;;;;;;;24.53;11.60;;;1.00;99.90;;;;;;5094703;28;20456;-69
2020/12/01 02:21:48;;;;;;;31.60;12.17;;;1.00;99.90;;;;;;5094465;28;20424;-68
2020/12/01 02:24:17;;;;;;;26.40;11.30;;;1.00;99.90;;;;;;5094666;28;20443;-70
2020/12/01 02:26:47;;;;;;;25.80;12.00;;;1.00;99.90;;;;;;5094642;28;20432;-70
2020/12/01 02:29:17;;;;;;;28.43;11.20;;;1.00;99.90;;;;;;5094514;28;20479;-70
2020/12/01 02:31:43;;;;;;;21.83;11.63;;;0.90;99.90;;;;;;5094593;28;20416;-69
2020/12/01 02:34:12;;;;;;;23.73;11.43;;;1.00;99.90;;;;;;5094148;28;20457;-69
2020/12/01 02:36:39;;;;;;;23.23;10.90;;;0.90;99.90;;;;;;5094335;28;20487;-69
2020/12/01 02:39:06;;;;;;;24.40;10.70;;;1.00;99.90;;;;;;5094055;28;20979;-69
2020/12/01 02:41:32;;;;;;;22.40;11.17;;;0.90;99.90;;;;;;5094394;28;20414;-70
2020/12/01 02:44:00;;;;;;;23.30;11.80;;;1.00;99.90;;;;;;5094350;28;20414;-69
2020/12/01 02:46:33;;;;;;;24.00;11.50;;;1.00;99.90;;;;;;5094312;28;20542;-70
2020/12/01 02:49:00;;;;;;;22.17;10.77;;;1.00;99.90;;;;;;5094222;28;20471;-70
2020/12/01 02:51:26;;;;;;;21.53;10.20;;;1.10;99.90;;;;;;5093882;28;20439;-70
2020/12/01 02:53:52;;;;;;;25.27;10.50;;;1.10;99.90;;;;;;5094193;28;20443;-70
2020/12/01 02:56:18;;;;;;;22.50;10.97;;;1.10;99.90;;;;;;5093973;28;20484;-71
2020/12/01 02:58:44;;;;;;;23.03;10.80;;;1.10;99.90;;;;;;5093751;28;20968;-71
2020/12/01 03:01:12;;;;;;;21.87;10.43;;;1.10;99.90;;;;;;5094059;28;20419;-70
2020/12/01 03:03:38;;;;;;;20.73;10.90;;;1.10;99.90;;;;;;5093665;28;20799;-71
2020/12/01 03:06:07;;;;;;;20.27;9.77;;;1.10;99.90;;;;;;5093954;28;20448;-71
2020/12/01 03:08:33;;;;;;;23.20;10.60;;;1.10;99.90;;;;;;5093887;28;20447;-71
2020/12/01 03:10:59;;;;;;;24.53;11.00;;;1.10;99.90;;;;;;5093584;28;20444;-70
2020/12/01 03:13:25;;;;;;;22.60;10.90;;;1.20;99.90;;;;;;5093832;28;20414;-71
2020/12/01 03:15:54;;;;;;;26.20;11.20;;;1.20;99.90;;;;;;5093419;28;20815;-71
2020/12/01 03:18:21;;;;;;;25.03;10.83;;;1.20;99.90;;;;;;5093737;28;20414;-70
2020/12/01 03:20:47;;;;;;;28.23;10.80;;;1.30;99.90;;;;;;5093650;28;20435;-70
2020/12/01 03:23:14;;;;;;;24.07;10.87;;;1.20;99.90;;;;;;5093341;28;20417;-70
2020/12/01 03:25:40;;;;;;;28.70;11.50;;;1.20;99.90;;;;;;5093147;28;20410;-70
2020/12/01 03:28:06;;;;;;;25.77;11.77;;;1.20;99.90;;;;;;5093672;28;20438;-70
2020/12/01 03:30:32;;;;;;;26.60;10.93;;;1.20;99.90;;;;;;5093541;28;20430;-70
2020/12/01 03:32:59;;;;;;;21.47;11.37;;;1.20;99.90;;;;;;5093535;28;20422;-70
2020/12/01 03:35:27;;;;;;;26.47;11.70;;;1.20;99.90;;;;;;5093557;28;20526;-69
2020/12/01 03:37:54;;;;;;;25.17;11.27;;;1.20;99.90;;;;;;5093432;28;20502;-68
2020/12/01 03:40:20;;;;;;;23.83;11.90;;;1.20;99.90;;;;;;5093414;28;20456;-68
2020/12/01 03:42:46;;;;;;;25.20;11.90;;;1.30;99.90;;;;;;5093469;28;20451;-68
2020/12/01 03:45:12;;;;;;;23.87;10.90;;;1.30;99.90;;;;;;5093455;28;20447;-68
2020/12/01 03:47:39;;;;;;;20.40;9.83;;;1.30;99.90;;;;;;5093424;28;20418;-68
2020/12/01 03:50:06;;;;;;;25.23;12.07;;;1.30;99.90;;;;;;5093341;28;20449;-68
2020/12/01 03:52:33;;;;;;;24.40;11.87;;;1.30;99.90;;;;;;5093345;28;20458;-68
2020/12/01 03:54:59;;;;;;;27.93;12.33;;;1.30;99.90;;;;;;5093893;28;20441;-68
2020/12/01 03:57:25;;;;;;;26.23;11.30;;;1.30;99.90;;;;;;5092941;28;20976;-68
2020/12/01 03:59:51;;;;;;;24.27;11.27;;;1.30;99.90;;;;;;5093272;28;20467;-68
2020/12/01 04:02:17;;;;;;;27.83;12.63;;;1.30;99.90;;;;;;5092973;28;20786;-71
2020/12/01 04:04:44;;;;;;;24.63;9.97;;;1.30;99.90;;;;;;5093315;28;20410;-70
2020/12/01 04:07:10;;;;;;;27.00;11.37;;;1.20;99.90;;;;;;5093239;28;20440;-70
2020/12/01 04:09:37;;;;;;;23.70;11.07;;;1.20;99.90;;;;;;5093180;28;20460;-70
2020/12/01 04:12:03;;;;;;;23.90;10.37;;;1.30;99.90;;;;;;5093162;28;20444;-70
2020/12/01 04:14:29;;;;;;;22.00;10.67;;;1.30;99.90;;;;;;5093142;28;20425;-68
2020/12/01 04:16:55;;;;;;;17.33;9.33;;;1.20;99.90;;;;;;5093088;28;20475;-68
2020/12/01 04:19:22;;;;;;;20.83;10.67;;;1.20;99.90;;;;;;5093115;28;20441;-69
2020/12/01 04:21:48;;;;;;;19.10;9.23;;;1.20;99.90;;;;;;5093144;28;20436;-70
2020/12/01 04:24:14;;;;;;;21.90;10.93;;;1.20;99.90;;;;;;5092781;28;20422;-70
2020/12/01 04:26:41;;;;;;;21.40;9.87;;;1.30;99.90;;;;;;5093030;28;20436;-70
2020/12/01 04:29:07;;;;;;;22.87;9.63;;;1.30;99.90;;;;;;5092972;28;20445;-70
2020/12/01 04:31:33;;;;;;;19.40;10.50;;;1.30;99.90;;;;;;5092699;28;20812;-70
2020/12/01 04:34:00;;;;;;;16.63;9.47;;;1.20;99.90;;;;;;5092535;28;20471;-71
2020/12/01 04:36:26;;;;;;;18.77;9.60;;;1.30;99.90;;;;;;5092933;28;20451;-71
2020/12/01 04:38:52;;;;;;;22.27;11.03;;;1.30;99.90;;;;;;5096345;28;20797;-71
2020/12/01 04:41:18;;;;;;;19.43;9.27;;;1.20;99.90;;;;;;5096345;28;20936;-71
2020/12/01 04:43:50;;;;;;;21.57;9.83;;;1.30;99.90;;;;;;5096296;28;20756;-71
2020/12/01 04:46:25;;;;;;;16.30;8.70;;;1.30;99.90;;;;;;5096360;28;20424;-68
2020/12/01 04:48:56;;;;;;;16.97;8.43;;;1.30;99.90;;;;;;5096198;28;20434;-68
2020/12/01 04:51:42;;;;;;;17.00;9.30;;;1.30;99.90;;;;;;5096577;28;20767;-69
2020/12/01 04:54:41;;;;;;;19.03;9.07;;;1.30;99.90;;;;;;5096506;28;20391;-68
2020/12/01 04:57:23;;;;;;;22.73;8.90;;;1.30;99.90;;;;;;5091366;28;20480;-68
2020/12/01 05:00:06;;;;;;;19.23;9.20;;;1.40;99.90;;;;;;5096320;28;20463;-71
2020/12/01 05:02:59;;;;;;;25.43;10.50;;;1.40;99.90;;;;;;5096333;28;20431;-71
2020/12/01 05:06:00;;;;;;;21.50;9.87;;;1.40;99.90;;;;;;5095975;28;20452;-70
2020/12/01 05:08:40;;;;;;;17.97;10.20;;;1.40;99.90;;;;;;5096145;28;20462;-70
2020/12/01 05:11:27;;;;;;;21.47;9.90;;;1.40;99.90;;;;;;5096167;28;20435;-70
2020/12/01 05:14:00;;;;;;;32.23;9.77;;;1.50;99.90;;;;;;5082979;28;20448;-70
2020/12/01 05:16:45;;;;;;;20.63;10.50;;;1.40;99.90;;;;;;5096023;28;20442;-70
2020/12/01 05:19:34;;;;;;;16.27;9.13;;;1.40;99.90;;;;;;5095595;28;20437;-70
2020/12/01 05:22:00;;;;;;;19.10;9.90;;;1.40;99.90;;;;;;5095973;28;20780;-70
2020/12/01 05:24:36;;;;;;;18.53;8.67;;;1.40;99.90;;;;;;5095920;28;20410;-70
2020/12/01 05:27:02;;;;;;;17.07;8.67;;;1.40;99.90;;;;;;5095888;28;20727;-70
2020/12/01 05:29:29;;;;;;;17.93;8.97;;;1.40;99.90;;;;;;5095733;28;20471;-70
2020/12/01 05:31:56;;;;;;;14.77;7.70;;;1.40;99.90;;;;;;5095707;28;20422;-70
2020/12/01 05:34:22;;;;;;;17.80;7.97;;;1.40;99.90;;;;;;5095324;28;20475;-70
2020/12/01 05:36:51;;;;;;;14.40;7.40;;;1.50;99.90;;;;;;5095584;28;20480;-67
2020/12/01 05:39:20;;;;;;;13.27;7.63;;;1.50;99.90;;;;;;5095471;28;20464;-68
2020/12/01 05:41:48;;;;;;;13.50;6.67;;;1.60;99.90;;;;;;5095499;28;20432;-68
2020/12/01 05:44:17;;;;;;;13.83;6.33;;;1.60;99.90;;;;;;5095257;28;20896;-68
2020/12/01 05:46:48;;;;;;;12.37;6.50;;;1.50;99.90;;;;;;5095492;28;20418;-68
2020/12/01 05:49:34;;;;;;;11.90;6.33;;;1.60;99.90;;;;;;5094915;28;20467;-68
2020/12/01 05:52:05;;;;;;;15.73;6.63;;;1.60;99.90;;;;;;5095070;28;20902;-67
2020/12/01 05:54:37;;;;;;;11.50;5.60;;;1.60;99.90;;;;;;5095341;28;20420;-67
2020/12/01 05:57:15;;;;;;;11.40;6.27;;;1.60;99.90;;;;;;5095196;28;20476;-72
2020/12/01 05:59:52;;;;;;;8.77;5.20;;;1.60;99.90;;;;;;5095084;28;20525;-72
2020/12/01 06:02:22;;;;;;;9.57;5.40;;;1.60;99.90;;;;;;5094892;28;21093;-71
2020/12/01 06:04:49;;;;;;;7.43;4.20;;;1.60;99.90;;;;;;5095083;28;20403;-71
2020/12/01 06:07:19;;;;;;;7.23;4.40;;;1.60;99.90;;;;;;5094995;28;20444;-70
2020/12/01 06:10:06;;;;;;;8.97;4.80;;;1.70;99.90;;;;;;5094967;28;20459;-70
2020/12/01 06:13:10;;;;;;;6.20;4.13;;;1.70;99.90;;;;;;5094940;28;20424;-70
2020/12/01 06:15:42;;;;;;;8.37;4.60;;;1.70;99.90;;;;;;5072217;28;20414;-70
2020/12/01 06:18:17;;;;;;;9.23;4.70;;;1.70;99.90;;;;;;5094774;28;20468;-70
2020/12/01 06:20:54;;;;;;;7.63;4.30;;;1.80;99.90;;;;;;5094426;28;20941;-70
2020/12/01 06:23:46;;;;;;;8.00;3.70;;;1.80;99.90;;;;;;5094796;28;20403;-70
2020/12/01 06:26:50;;;;;;;7.57;4.40;;;1.70;99.90;;;;;;5094731;28;20402;-70
2020/12/01 06:30:00;;;;;;;10.90;4.70;;;1.70;99.90;;;;;;5094562;28;20470;-70
2020/12/01 06:33:09;;;;;;;9.07;4.23;;;1.60;99.90;;;;;;5094582;28;20439;-70
2020/12/01 06:36:27;;;;;;;7.93;4.20;;;1.60;99.90;;;;;;5037468;28;20434;-70
2020/12/01 06:39:09;;;;;;;5.73;4.10;;;1.60;99.90;;;;;;5093908;28;20459;-70
2020/12/01 06:41:41;;;;;;;7.90;3.77;;;1.70;99.90;;;;;;5094452;28;20421;-71
2020/12/01 06:44:16;;;;;;;6.23;3.50;;;1.60;99.90;;;;;;5094431;28;20417;-72
2020/12/01 06:46:44;;;;;;;6.90;3.57;;;1.70;99.90;;;;;;5094064;28;20865;-68
2020/12/01 06:49:15;;;;;;;7.63;3.90;;;1.70;99.90;;;;;;5094196;28;20431;-68
2020/12/01 06:51:47;;;;;;;6.13;3.53;;;1.70;99.90;;;;;;5094259;28;20424;-68
2020/12/01 06:54:14;;;;;;;8.63;3.53;;;1.70;99.90;;;;;;5093868;28;20908;-68
2020/12/01 06:56:41;;;;;;;5.40;3.23;;;1.70;99.90;;;;;;5094059;28;20482;-68
2020/12/01 06:59:09;;;;;;;7.63;3.20;;;1.70;99.90;;;;;;5093780;28;20466;-68
2020/12/01 07:01:37;;;;;;;4.07;3.00;;;1.80;99.90;;;;;;5093537;28;20444;-68
2020/12/01 07:04:24;;;;;;;4.77;3.40;;;1.80;99.90;;;;;;5094004;28;20440;-68
2020/12/01 07:06:54;;;;;;;5.90;3.30;;;1.80;99.90;;;;;;5093668;28;20425;-68
2020/12/01 07:09:24;;;;;;;5.10;3.17;;;1.80;99.90;;;;;;5093879;28;20460;-68
2020/12/01 07:12:01;;;;;;;4.53;2.90;;;1.80;99.90;;;;;;5093618;28;20930;-69
2020/12/01 07:14:37;;;;;;;3.63;2.77;;;1.80;99.90;;;;;;5093932;28;20402;-67
2020/12/01 07:17:15;;;;;;;4.70;2.77;;;1.80;99.90;;;;;;5093780;28;20490;-67
2020/12/01 07:19:43;;;;;;;2.93;2.60;;;1.80;99.90;;;;;;5093710;28;20426;-67
2020/12/01 07:22:31;;;;;;;3.77;2.40;;;1.80;99.90;;;;;;5094368;28;20425;-70
2020/12/01 07:25:10;;;;;;;2.47;2.10;;;1.80;99.90;;;;;;5093743;28;20417;-70
2020/12/01 07:27:48;;;;;;;2.83;2.30;;;1.90;99.90;;;;;;5093403;28;20430;-68
2020/12/01 07:30:19;;;;;;;4.63;3.00;;;1.90;99.90;;;;;;5093444;28;20460;-68
2020/12/01 07:32:59;;;;;;;5.23;3.53;;;1.90;99.90;;;;;;5093676;28;20432;-67
2020/12/01 07:35:33;;;;;;;4.80;3.43;;;1.90;99.90;;;;;;5093618;28;20417;-67
2020/12/01 07:38:09;;;;;;;2.73;2.00;;;1.90;99.90;;;;;;5093168;28;20975;-70
2020/12/01 07:40:44;;;;;;;4.60;2.50;;;2.00;99.90;;;;;;5093501;28;20463;-71
2020/12/01 07:43:13;;;;;;;2.90;2.37;;;2.00;99.90;;;;;;5093487;28;20420;-70
2020/12/01 07:45:39;;;;;;;2.80;2.23;;;2.00;99.90;;;;;;5093078;28;20814;-70
2020/12/01 07:48:06;;;;;;;3.33;2.53;;;2.00;99.90;;;;;;5093348;28;20444;-70
2020/12/01 07:50:33;;;;;;;3.30;1.93;;;2.00;99.90;;;;;;5091072;28;20970;-69
2020/12/01 07:53:01;;;;;;;2.50;2.27;;;2.00;99.90;;;;;;5093226;28;20444;-69
2020/12/01 07:55:37;;;;;;;3.50;2.27;;;2.00;99.90;;;;;;5093041;28;20909;-70
2020/12/01 07:58:07;;;;;;;2.23;2.03;;;2.00;99.90;;;;;;5093261;28;20464;-69
2020/12/01 08:00:34;;;;;;;3.63;2.53;;;2.00;99.90;;;;;;5093257;28;20445;-69
2020/12/01 08:03:04;;;;;;;2.57;2.37;;;1.90;99.90;;;;;;5093147;28;20460;-70
2020/12/01 08:05:30;;;;;;;1.60;1.50;;;1.90;99.90;;;;;;5093292;28;20436;-70
2020/12/01 08:07:57;;;;;;;1.73;1.60;;;2.00;99.90;;;;;;5092874;28;20931;-70
2020/12/01 08:10:26;;;;;;;2.30;1.83;;;2.00;99.90;;;;;;5093153;28;20460;-71
2020/12/01 08:12:59;;;;;;;3.27;2.00;;;2.00;99.90;;;;;;5096943;28;20434;-70
2020/12/01 08:15:27;;;;;;;4.10;2.00;;;2.00;99.90;;;;;;5097238;28;20402;-70
2020/12/01 08:17:54;;;;;;;1.73;1.43;;;1.90;99.90;;;;;;5097078;28;20479;-71
2020/12/01 08:20:24;;;;;;;3.10;2.00;;;1.90;99.90;;;;;;5096725;28;20455;-70
2020/12/01 08:23:01;;;;;;;3.33;1.93;;;2.00;99.90;;;;;;5096768;28;20440;-70
2020/12/01 08:25:29;;;;;;;2.47;1.97;;;1.90;99.90;;;;;;5096757;28;20428;-71
2020/12/01 08:28:06;;;;;;;2.07;1.60;;;1.90;99.90;;;;;;5096908;28;20845;-70
2020/12/01 08:30:48;;;;;;;1.70;1.50;;;1.90;99.90;;;;;;5096794;28;20456;-70
2020/12/01 08:33:35;;;;;;;2.60;1.40;;;1.80;99.90;;;;;;5096471;28;20443;-69
2020/12/01 08:36:11;;;;;;;1.83;1.30;;;1.90;99.90;;;;;;5096693;28;20426;-69
2020/12/01 08:38:56;;;;;;;1.90;1.40;;;1.90;99.90;;;;;;5096296;28;20992;-68
2020/12/01 08:41:38;;;;;;;1.90;1.30;;;1.90;99.90;;;;;;5096735;28;20427;-69
2020/12/01 08:44:07;;;;;;;2.83;1.50;;;1.90;99.90;;;;;;5096712;28;20398;-67
2020/12/01 08:46:34;;;;;;;1.50;1.40;;;2.00;99.90;;;;;;5096686;28;20416;-67
2020/12/01 08:49:06;;;;;;;1.30;1.20;;;2.00;99.90;;;;;;5096462;28;20460;-68
2020/12/01 08:51:37;;;;;;;1.43;1.33;;;2.00;99.90;;;;;;5096574;28;20424;-67
2020/12/01 08:54:13;;;;;;;2.00;1.80;;;2.00;99.90;;;;;;5096195;28;20433;-67
2020/12/01 08:56:59;;;;;;;2.00;1.70;;;2.00;99.90;;;;;;5096305;28;20427;-67
2020/12/01 08:59:29;;;;;;;2.70;1.53;;;2.10;99.90;;;;;;5096316;28;20460;-68
2020/12/01 09:02:00;;;;;;;2.80;1.67;;;2.10;99.90;;;;;;5096363;28;20427;-67
2020/12/01 09:04:30;;;;;;;1.93;1.70;;;2.20;99.90;;;;;;5096302;28;20428;-68
2020/12/01 09:07:19;;;;;;;4.90;2.97;;;2.20;99.90;;;;;;5095988;28;20783;-69
2020/12/01 09:09:46;;;;;;;5.20;2.70;;;2.20;99.90;;;;;;5096183;28;20460;-69
2020/12/01 09:12:22;;;;;;;3.63;2.40;;;2.20;99.90;;;;;;5096245;28;20427;-69
2020/12/01 09:15:07;;;;;;;2.23;2.00;;;2.20;99.90;;;;;;5095844;28;20467;-69
2020/12/01 09:17:43;;;;;;;3.37;2.10;;;2.20;99.90;;;;;;5095994;28;20532;-68
2020/12/01 09:20:22;;;;;;;2.13;1.93;;;2.20;99.90;;;;;;5095632;28;20960;-70
2020/12/01 09:22:48;;;;;;;1.90;1.70;;;2.30;99.90;;;;;;5095169;28;20424;-69
2020/12/01 09:25:19;;;;;;;2.60;2.27;;;2.30;99.90;;;;;;5095631;28;20424;-69
2020/12/01 09:27:47;;;;;;;2.43;2.20;;;2.30;99.90;;;;;;5095614;28;20399;-69
2020/12/01 09:30:34;;;;;;;4.70;2.20;;;2.30;99.90;;;;;;5095776;28;20456;-69
2020/12/01 09:33:00;;;;;;;5.47;2.60;;;2.20;99.90;;;;;;5095737;28;20428;-69
2020/12/01 09:35:27;;;;;;;2.97;2.53;;;2.10;99.90;;;;;;5095727;28;20435;-69
2020/12/01 09:37:54;;;;;;;3.00;2.40;;;2.20;99.90;;;;;;5095349;28;20461;-68
2020/12/01 09:40:21;;;;;;;4.47;2.80;;;2.30;99.90;;;;;;5095229;28;20813;-69
2020/12/01 09:42:52;;;;;;;3.27;2.97;;;2.30;99.90;;;;;;5095587;28;20446;-69
2020/12/01 09:45:22;;;;;;;3.53;2.80;;;2.40;99.90;;;;;;5095543;28;20428;-69
2020/12/01 09:47:51;;;;;;;3.33;2.90;;;2.40;99.90;;;;;;5095198;28;20799;-69
2020/12/01 09:50:20;;;;;;;5.80;2.70;;;2.30;99.90;;;;;;5095359;28;20475;-68
2020/12/01 09:53:07;;;;;;;3.97;2.93;;;2.30;99.90;;;;;;5095462;28;20428;-68
2020/12/01 09:58:36;;;;;;;5.00;3.23;;;2.20;99.90;;;;;;5091372;28;20454;-69
2020/12/01 10:09:17;;;;;;;5.23;4.47;;;2.10;99.90;;;;;;5094772;28;20427;-69
2020/12/01 10:12:12;;;;;;;6.00;4.43;;;2.00;99.90;;;;;;5094988;28;20435;-69
2020/12/01 10:26:21;;;;;;;8.37;4.97;;;2.10;99.90;;;;;;5094704;28;20408;-68
2020/12/01 10:37:01;;;;;;;6.80;4.63;;;2.20;99.90;;;;;;5069346;28;20580;-68
2020/12/01 10:39:27;;;;;;;6.67;4.43;;;2.20;99.90;;;;;;5094402;28;20459;-68
2020/12/01 10:41:54;;;;;;;6.50;4.00;;;2.20;99.90;;;;;;5094483;28;20406;-67
2020/12/01 10:44:21;;;;;;;4.83;3.67;;;2.20;99.90;;;;;;5094457;28;20439;-69
2020/12/01 10:46:49;;;;;;;6.60;4.90;;;2.30;99.90;;;;;;5094081;28;20516;-69
2020/12/01 10:49:16;;;;;;;4.63;3.77;;;2.30;99.90;;;;;;5094257;28;20460;-68
2020/12/01 10:51:42;;;;;;;4.40;3.67;;;2.30;99.90;;;;;;5094295;28;20428;-69
2020/12/01 10:54:09;;;;;;;4.67;3.20;;;2.30;99.90;;;;;;5094226;28;20436;-69
2020/12/01 10:56:35;;;;;;;3.40;3.10;;;2.30;99.90;;;;;;5094165;28;20435;-68
2020/12/01 10:59:02;;;;;;;4.63;4.20;;;2.30;99.90;;;;;;5094012;28;20483;-69
2020/12/01 11:01:32;;;;;;;5.03;3.70;;;2.30;99.90;;;;;;5094161;28;20435;-70
2020/12/01 11:03:58;;;;;;;5.93;4.10;;;2.40;99.90;;;;;;5094050;28;20421;-68
2020/12/01 11:06:25;;;;;;;7.93;4.23;;;2.40;99.90;;;;;;5093723;28;20797;-69
2020/12/01 11:08:51;;;;;;;5.87;4.50;;;2.40;99.90;;;;;;5093899;28;20463;-69
2020/12/01 11:11:18;;;;;;;7.67;4.67;;;2.40;99.90;;;;;;5093982;28;20795;-68
2020/12/01 11:13:45;;;;;;;5.53;4.37;;;2.40;99.90;;;;;;5093904;28;20424;-70
2020/12/01 11:16:13;;;;;;;6.00;4.70;;;2.40;99.90;;;;;;5093854;28;20443;-69
2020/12/01 11:18:39;;;;;;;5.80;4.13;;;2.40;99.90;;;;;;5093694;28;20712;-69
2020/12/01 11:21:06;;;;;;;6.77;4.80;;;2.30;99.90;;;;;;5093845;28;20427;-69
2020/12/01 11:23:32;;;;;;;6.80;4.27;;;2.40;99.90;;;;;;5093737;28;20395;-69
2020/12/01 11:25:58;;;;;;;8.70;5.27;;;2.30;99.90;;;;;;5093736;28;20424;-68
2020/12/01 11:28:24;;;;;;;6.93;4.77;;;2.30;99.90;;;;;;5093699;28;20429;-69
2020/12/01 11:30:51;;;;;;;8.00;4.90;;;2.30;99.90;;;;;;5093587;28;20466;-69
2020/12/01 11:33:18;;;;;;;6.17;4.93;;;2.30;99.90;;;;;;5093513;28;20434;-69
2020/12/01 11:35:44;;;;;;;6.10;4.87;;;2.40;99.90;;;;;;5093633;28;20424;-69
2020/12/01 11:38:10;;;;;;;6.03;4.00;;;2.40;99.90;;;;;;5093476;28;20464;-69
2020/12/01 11:40:37;;;;;;;7.93;4.03;;;2.40;99.90;;;;;;5093450;28;20452;-70
2020/12/01 11:43:03;;;;;;;4.53;4.13;;;2.40;99.90;;;;;;5093182;28;20908;-69
2020/12/01 11:45:29;;;;;;;7.50;4.33;;;2.40;99.90;;;;;;5093236;28;20618;-69
2020/12/01 11:47:55;;;;;;;5.20;4.37;;;2.40;99.90;;;;;;5093020;28;20900;-69
2020/12/01 11:50:22;;;;;;;6.60;4.20;;;2.50;99.90;;;;;;5093395;28;20442;-69
2020/12/01 11:52:49;;;;;;;4.90;4.00;;;2.50;99.90;;;;;;5093413;28;20416;-69
2020/12/01 11:55:15;;;;;;;5.60;4.37;;;2.50;99.90;;;;;;5093467;28;20427;-68
2020/12/01 11:57:41;;;;;;;4.83;3.80;;;2.50;99.90;;;;;;5093024;28;20827;-68
2020/12/01 12:00:09;;;;;;;5.13;3.90;;;2.50;99.90;;;;;;5093336;28;20468;-70
2020/12/01 12:02:35;;;;;;;4.47;3.70;;;2.60;99.90;;;;;;5093349;28;20428;-70
2020/12/01 12:05:01;;;;;;;4.07;3.77;;;2.60;99.90;;;;;;5093351;28;20428;-71
2020/12/01 12:07:28;;;;;;;4.77;3.80;;;2.60;99.90;;;;;;5093342;28;20420;-70
2020/12/01 12:09:54;;;;;;;5.20;3.70;;;2.60;99.90;;;;;;5093224;28;20463;-69
2020/12/01 12:12:21;;;;;;;4.40;4.00;;;2.60;99.90;;;;;;5092959;28;20771;-69
2020/12/01 12:14:47;;;;;;;4.37;4.00;;;2.70;99.90;;;;;;5093271;28;20425;-69
2020/12/01 12:17:13;;;;;;;4.53;3.60;;;2.60;99.90;;;;;;5093115;28;20414;-69
2020/12/01 12:19:39;;;;;;;4.97;3.70;;;2.70;99.90;;;;;;5093171;28;20475;-69
2020/12/01 12:22:06;;;;;;;5.70;3.50;;;2.70;99.90;;;;;;5093171;28;20425;-68
2020/12/01 12:24:33;;;;;;;5.87;3.90;;;2.70;99.90;;;;;;5093189;28;20431;-70
2020/12/01 12:26:59;;;;;;;4.83;3.37;;;2.70;99.90;;;;;;5093159;28;20424;-69
2020/12/01 12:29:25;;;;;;;6.40;4.80;;;2.60;99.90;;;;;;5092744;28;20844;-69
2020/12/01 12:31:51;;;;;;;7.43;4.83;;;2.60;99.90;;;;;;5093471;28;20429;-69
2020/12/01 12:34:17;;;;;;;4.60;4.10;;;2.70;99.90;;;;;;5092638;28;20487;-69
2020/12/01 12:36:44;;;;;;;16.23;8.20;;;2.70;99.90;;;;;;5093000;28;20440;-68
2020/12/01 12:39:11;;;;;;;17.90;9.33;;;2.80;99.90;;;;;;5092876;28;20487;-69
2020/12/01 12:41:38;;;;;;;10.20;6.23;;;2.90;99.90;;;;;;5093032;28;20399;-69
2020/12/01 12:44:06;;;;;;;12.00;6.40;;;2.90;99.90;;;;;;5092956;28;20436;-69
2020/12/01 12:46:32;;;;;;;5.17;4.10;;;3.00;99.90;;;;;;5092918;28;20497;-69
2020/12/01 12:48:59;;;;;;;5.70;4.20;;;3.10;99.90;;;;;;5092839;28;20460;-70
2020/12/01 12:51:25;;;;;;;6.83;5.30;;;3.20;99.90;;;;;;5092920;28;20879;-67
2020/12/01 12:53:51;;;;;;;5.30;4.03;;;3.20;99.90;;;;;;5092507;28;20947;-68
2020/12/01 12:56:17;;;;;;;5.20;4.53;;;3.30;99.90;;;;;;5092863;28;20440;-69
2020/12/01 12:58:44;;;;;;;8.00;4.53;;;3.20;99.90;;;;;;5094168;28;20480;-69
2020/12/01 13:01:10;;;;;;;7.57;5.50;;;3.10;99.90;;;;;;5096417;28;20436;-69
2020/12/01 13:03:37;;;;;;;6.37;4.90;;;3.10;99.90;;;;;;5096383;28;20498;-70
2020/12/01 13:06:03;;;;;;;6.33;4.80;;;3.10;99.90;;;;;;5095983;28;20935;-70
2020/12/01 13:08:29;;;;;;;8.70;5.13;;;3.10;99.90;;;;;;5096194;28;20436;-68
2020/12/01 13:10:55;;;;;;;5.83;4.30;;;3.10;99.90;;;;;;5095926;28;20443;-68
2020/12/01 13:13:21;;;;;;;6.03;4.67;;;3.20;99.90;;;;;;5096107;28;20444;-69
2020/12/01 13:15:48;;;;;;;7.03;4.80;;;3.20;99.90;;;;;;5095748;28;20455;-69
2020/12/01 13:18:15;;;;;;;4.00;3.60;;;3.20;99.90;;;;;;5095697;28;20821;-68
2020/12/01 13:20:41;;;;;;;4.20;3.53;;;3.20;99.90;;;;;;5095908;28;20463;-70
2020/12/01 13:23:07;;;;;;;5.00;3.90;;;3.30;99.90;;;;;;5095996;28;20814;-70
2020/12/01 13:25:33;;;;;;;6.07;4.10;;;3.30;99.90;;;;;;5095617;28;20965;-69
2020/12/01 13:27:59;;;;;;;5.13;4.00;;;3.40;99.90;;;;;;5095874;28;20440;-71
2020/12/01 13:30:26;;;;;;;7.20;4.87;;;3.40;99.90;;;;;;5095729;28;20464;-70
2020/12/01 13:32:54;;;;;;;4.50;3.17;;;3.40;99.90;;;;;;5095780;28;20418;-70
2020/12/01 13:35:23;;;;;;;3.07;2.80;;;3.40;99.90;;;;;;5095262;28;20527;-71